sensor_id;sensor_type;location;lat;lon;timestamp;P1;durP1;ratioP1;P2;durP2;ratioP2
40955;SDS011;26687;48.254;11.454;2023-04-23T00:01:57;4.03;;;3.20;;
40955;SDS011;26687;48.254;11.454;2023-04-23T00:04:58;4.78;;;3.60;;
40955;SDS011;26687;48.254;11.454;2023-04-23T00:07:59;4.32;;;3.60;;
40955;SDS011;26687;48.254;11.454;2023-04-23T00:11:01;4.78;;;3.33;;
40955;SDS011;26687;48.254;11.454;2023-04-23T00:14:01;5.10;;;3.65;;
40955;SDS011;26687;48.254;11.454;2023-04-23T00:17:01;4.90;;;3.60;;
40955;SDS011;26687;48.254;11.454;2023-04-23T00:20:03;3.38;;;3.08;;
40955;SDS011;26687;48.254;11.454;2023-04-23T00:23:03;3.30;;;3.05;;
40955;SDS011;26687;48.254;11.454;2023-04-23T00:26:03;4.57;;;3.15;;
40955;SDS011;26687;48.254;11.454;2023-04-23T00:29:03;5.25;;;3.30;;
40955;SDS011;26687;48.254;11.454;2023-04-23T00:32:04;3.58;;;3.22;;
40955;SDS011;26687;48.254;11.454;2023-04-23T00:35:04;4.60;;;3.50;;
40955;SDS011;26687;48.254;11.454;2023-04-23T00:38:04;3.92;;;2.90;;
40955;SDS011;26687;48.254;11.454;2023-04-23T00:41:05;3.80;;;2.60;;
40955;SDS011;26687;48.254;11.454;2023-04-23T00:44:05;4.25;;;3.10;;
40955;SDS011;26687;48.254;11.454;2023-04-23T00:47:06;3.42;;;3.13;;
40955;SDS011;26687;48.254;11.454;2023-04-23T00:50:07;3.67;;;2.90;;
40955;SDS011;26687;48.254;11.454;2023-04-23T00:53:07;4.90;;;3.08;;
40955;SDS011;26687;48.254;11.454;2023-04-23T00:56:07;4.00;;;3.42;;
40955;SDS011;26687;48.254;11.454;2023-04-23T00:59:08;5.10;;;3.38;;
40955;SDS011;26687;48.254;11.454;2023-04-23T01:02:08;3.50;;;3.20;;
40955;SDS011;26687;48.254;11.454;2023-04-23T01:05:09;3.63;;;3.33;;
40955;SDS011;26687;48.254;11.454;2023-04-23T01:08:12;3.45;;;3.15;;
40955;SDS011;26687;48.254;11.454;2023-04-23T01:14:14;4.57;;;4.00;;
40955;SDS011;26687;48.254;11.454;2023-04-23T01:17:14;4.03;;;3.60;;
40955;SDS011;26687;48.254;11.454;2023-04-23T01:20:15;4.78;;;3.55;;
40955;SDS011;26687;48.254;11.454;2023-04-23T01:23:15;6.55;;;3.50;;
40955;SDS011;26687;48.254;11.454;2023-04-23T01:26:16;3.57;;;3.27;;
40955;SDS011;26687;48.254;11.454;2023-04-23T01:29:18;5.22;;;3.53;;
40955;SDS011;26687;48.254;11.454;2023-04-23T01:32:18;5.18;;;3.22;;
40955;SDS011;26687;48.254;11.454;2023-04-23T01:35:19;4.22;;;3.35;;
40955;SDS011;26687;48.254;11.454;2023-04-23T01:38:20;4.10;;;3.40;;
40955;SDS011;26687;48.254;11.454;2023-04-23T01:41:21;4.07;;;3.65;;
40955;SDS011;26687;48.254;11.454;2023-04-23T01:44:21;5.47;;;3.70;;
40955;SDS011;26687;48.254;11.454;2023-04-23T01:47:22;3.83;;;3.50;;
40955;SDS011;26687;48.254;11.454;2023-04-23T01:50:22;4.53;;;3.87;;
40955;SDS011;26687;48.254;11.454;2023-04-23T01:53:23;3.72;;;3.42;;
40955;SDS011;26687;48.254;11.454;2023-04-23T01:56:24;5.30;;;3.80;;
40955;SDS011;26687;48.254;11.454;2023-04-23T01:59:24;4.15;;;3.67;;
40955;SDS011;26687;48.254;11.454;2023-04-23T02:02:25;4.13;;;3.73;;
40955;SDS011;26687;48.254;11.454;2023-04-23T02:05:25;3.73;;;3.43;;
40955;SDS011;26687;48.254;11.454;2023-04-23T02:08:27;6.00;;;3.37;;
40955;SDS011;26687;48.254;11.454;2023-04-23T02:11:27;4.10;;;3.60;;
40955;SDS011;26687;48.254;11.454;2023-04-23T02:14:28;4.65;;;3.83;;
40955;SDS011;26687;48.254;11.454;2023-04-23T02:17:28;4.35;;;3.95;;
40955;SDS011;26687;48.254;11.454;2023-04-23T02:20:28;4.22;;;3.83;;
40955;SDS011;26687;48.254;11.454;2023-04-23T02:23:28;5.88;;;3.72;;
40955;SDS011;26687;48.254;11.454;2023-04-23T02:26:29;4.72;;;3.80;;
40955;SDS011;26687;48.254;11.454;2023-04-23T02:29:29;4.83;;;3.93;;
40955;SDS011;26687;48.254;11.454;2023-04-23T02:32:29;4.78;;;4.10;;
40955;SDS011;26687;48.254;11.454;2023-04-23T02:35:30;4.65;;;3.92;;
40955;SDS011;26687;48.254;11.454;2023-04-23T02:38:30;4.10;;;3.42;;
40955;SDS011;26687;48.254;11.454;2023-04-23T02:41:30;3.97;;;3.65;;
40955;SDS011;26687;48.254;11.454;2023-04-23T02:44:30;4.10;;;3.70;;
40955;SDS011;26687;48.254;11.454;2023-04-23T02:47:30;4.40;;;4.00;;
40955;SDS011;26687;48.254;11.454;2023-04-23T02:50:31;4.30;;;3.95;;
40955;SDS011;26687;48.254;11.454;2023-04-23T02:53:31;5.00;;;4.22;;
40955;SDS011;26687;48.254;11.454;2023-04-23T02:56:31;6.07;;;4.18;;
40955;SDS011;26687;48.254;11.454;2023-04-23T02:59:31;4.32;;;3.92;;
40955;SDS011;26687;48.254;11.454;2023-04-23T03:02:32;5.30;;;4.17;;
40955;SDS011;26687;48.254;11.454;2023-04-23T03:05:32;3.95;;;3.65;;
40955;SDS011;26687;48.254;11.454;2023-04-23T03:08:32;4.20;;;3.90;;
40955;SDS011;26687;48.254;11.454;2023-04-23T03:11:32;4.60;;;4.20;;
40955;SDS011;26687;48.254;11.454;2023-04-23T03:14:32;4.35;;;4.05;;
40955;SDS011;26687;48.254;11.454;2023-04-23T03:17:32;4.43;;;3.90;;
40955;SDS011;26687;48.254;11.454;2023-04-23T03:20:33;4.93;;;4.30;;
40955;SDS011;26687;48.254;11.454;2023-04-23T03:23:34;4.18;;;3.83;;
40955;SDS011;26687;48.254;11.454;2023-04-23T03:26:34;4.82;;;3.60;;
40955;SDS011;26687;48.254;11.454;2023-04-23T03:29:34;3.70;;;3.40;;
40955;SDS011;26687;48.254;11.454;2023-04-23T03:32:35;3.70;;;3.40;;
40955;SDS011;26687;48.254;11.454;2023-04-23T03:35:35;3.60;;;3.28;;
40955;SDS011;26687;48.254;11.454;2023-04-23T03:38:35;3.80;;;3.50;;
40955;SDS011;26687;48.254;11.454;2023-04-23T03:41:35;3.67;;;3.38;;
40955;SDS011;26687;48.254;11.454;2023-04-23T03:44:35;3.88;;;3.58;;
40955;SDS011;26687;48.254;11.454;2023-04-23T03:47:36;4.68;;;3.47;;
40955;SDS011;26687;48.254;11.454;2023-04-23T03:50:36;4.95;;;2.85;;
40955;SDS011;26687;48.254;11.454;2023-04-23T03:53:39;4.25;;;3.40;;
40955;SDS011;26687;48.254;11.454;2023-04-23T03:56:39;4.00;;;3.53;;
40955;SDS011;26687;48.254;11.454;2023-04-23T03:59:39;4.32;;;3.33;;
40955;SDS011;26687;48.254;11.454;2023-04-23T04:02:39;4.20;;;3.40;;
40955;SDS011;26687;48.254;11.454;2023-04-23T04:05:40;3.10;;;2.80;;
40955;SDS011;26687;48.254;11.454;2023-04-23T04:08:40;4.20;;;3.03;;
40955;SDS011;26687;48.254;11.454;2023-04-23T04:11:40;3.22;;;2.47;;
40955;SDS011;26687;48.254;11.454;2023-04-23T04:14:40;4.00;;;2.50;;
40955;SDS011;26687;48.254;11.454;2023-04-23T04:17:41;2.47;;;2.28;;
40955;SDS011;26687;48.254;11.454;2023-04-23T04:20:41;3.88;;;2.10;;
40955;SDS011;26687;48.254;11.454;2023-04-23T04:23:43;2.30;;;2.10;;
40955;SDS011;26687;48.254;11.454;2023-04-23T04:26:44;3.10;;;2.13;;
40955;SDS011;26687;48.254;11.454;2023-04-23T04:29:44;2.40;;;2.20;;
40955;SDS011;26687;48.254;11.454;2023-04-23T04:32:45;2.43;;;2.23;;
40955;SDS011;26687;48.254;11.454;2023-04-23T04:35:45;4.55;;;2.55;;
40955;SDS011;26687;48.254;11.454;2023-04-23T04:38:48;2.70;;;2.50;;
40955;SDS011;26687;48.254;11.454;2023-04-23T04:41:48;2.83;;;2.63;;
40955;SDS011;26687;48.254;11.454;2023-04-23T04:44:48;2.30;;;2.10;;
40955;SDS011;26687;48.254;11.454;2023-04-23T04:47:49;3.03;;;2.72;;
40955;SDS011;26687;48.254;11.454;2023-04-23T04:50:49;3.28;;;2.70;;
40955;SDS011;26687;48.254;11.454;2023-04-23T04:53:49;3.83;;;2.60;;
40955;SDS011;26687;48.254;11.454;2023-04-23T04:56:50;2.83;;;2.58;;
40955;SDS011;26687;48.254;11.454;2023-04-23T04:59:50;2.70;;;2.50;;
40955;SDS011;26687;48.254;11.454;2023-04-23T05:02:50;3.13;;;2.83;;
40955;SDS011;26687;48.254;11.454;2023-04-23T05:05:51;3.20;;;2.80;;
40955;SDS011;26687;48.254;11.454;2023-04-23T05:08:51;3.20;;;2.78;;
40955;SDS011;26687;48.254;11.454;2023-04-23T05:11:51;3.22;;;2.90;;
40955;SDS011;26687;48.254;11.454;2023-04-23T05:14:51;3.20;;;2.90;;
40955;SDS011;26687;48.254;11.454;2023-04-23T05:17:52;3.72;;;3.42;;
40955;SDS011;26687;48.254;11.454;2023-04-23T05:20:53;2.75;;;2.55;;
40955;SDS011;26687;48.254;11.454;2023-04-23T05:23:53;3.67;;;3.00;;
40955;SDS011;26687;48.254;11.454;2023-04-23T05:26:53;4.35;;;3.22;;
40955;SDS011;26687;48.254;11.454;2023-04-23T05:29:54;3.25;;;2.95;;
40955;SDS011;26687;48.254;11.454;2023-04-23T05:32:54;3.60;;;3.07;;
40955;SDS011;26687;48.254;11.454;2023-04-23T05:35:54;3.83;;;3.07;;
40955;SDS011;26687;48.254;11.454;2023-04-23T05:38:54;5.70;;;3.63;;
40955;SDS011;26687;48.254;11.454;2023-04-23T05:41:54;3.63;;;3.33;;
40955;SDS011;26687;48.254;11.454;2023-04-23T05:44:55;3.63;;;3.33;;
40955;SDS011;26687;48.254;11.454;2023-04-23T05:47:55;3.42;;;3.03;;
40955;SDS011;26687;48.254;11.454;2023-04-23T05:50:55;3.20;;;2.90;;
40955;SDS011;26687;48.254;11.454;2023-04-23T05:53:55;4.93;;;3.30;;
40955;SDS011;26687;48.254;11.454;2023-04-23T05:56:56;3.45;;;3.15;;
40955;SDS011;26687;48.254;11.454;2023-04-23T05:59:56;3.30;;;3.00;;
40955;SDS011;26687;48.254;11.454;2023-04-23T06:02:56;3.80;;;3.40;;
40955;SDS011;26687;48.254;11.454;2023-04-23T06:05:56;3.80;;;3.47;;
40955;SDS011;26687;48.254;11.454;2023-04-23T06:08:56;4.78;;;3.47;;
40955;SDS011;26687;48.254;11.454;2023-04-23T06:11:56;3.70;;;3.30;;
40955;SDS011;26687;48.254;11.454;2023-04-23T06:14:56;4.68;;;3.75;;
40955;SDS011;26687;48.254;11.454;2023-04-23T06:17:57;5.10;;;3.45;;
40955;SDS011;26687;48.254;11.454;2023-04-23T06:20:57;4.03;;;3.05;;
40955;SDS011;26687;48.254;11.454;2023-04-23T06:24:00;4.43;;;3.40;;
40955;SDS011;26687;48.254;11.454;2023-04-23T06:27:00;4.15;;;3.63;;
40955;SDS011;26687;48.254;11.454;2023-04-23T06:30:01;3.80;;;3.40;;
40955;SDS011;26687;48.254;11.454;2023-04-23T06:33:01;3.97;;;3.13;;
40955;SDS011;26687;48.254;11.454;2023-04-23T06:36:02;3.97;;;3.55;;
40955;SDS011;26687;48.254;11.454;2023-04-23T06:39:03;4.35;;;3.80;;
40955;SDS011;26687;48.254;11.454;2023-04-23T06:42:03;4.40;;;3.53;;
40955;SDS011;26687;48.254;11.454;2023-04-23T06:45:03;4.60;;;3.67;;
40955;SDS011;26687;48.254;11.454;2023-04-23T06:48:04;5.80;;;3.75;;
40955;SDS011;26687;48.254;11.454;2023-04-23T06:51:04;3.70;;;3.40;;
40955;SDS011;26687;48.254;11.454;2023-04-23T06:54:05;3.70;;;3.38;;
40955;SDS011;26687;48.254;11.454;2023-04-23T06:57:05;4.47;;;4.07;;
40955;SDS011;26687;48.254;11.454;2023-04-23T07:00:06;4.05;;;3.75;;
40955;SDS011;26687;48.254;11.454;2023-04-23T07:03:10;4.63;;;3.70;;
40955;SDS011;26687;48.254;11.454;2023-04-23T07:06:10;5.07;;;3.97;;
40955;SDS011;26687;48.254;11.454;2023-04-23T07:09:10;7.43;;;4.30;;
40955;SDS011;26687;48.254;11.454;2023-04-23T07:12:10;4.57;;;4.10;;
40955;SDS011;26687;48.254;11.454;2023-04-23T07:15:11;5.20;;;3.80;;
40955;SDS011;26687;48.254;11.454;2023-04-23T07:18:11;4.13;;;3.83;;
40955;SDS011;26687;48.254;11.454;2023-04-23T07:21:11;4.30;;;3.90;;
40955;SDS011;26687;48.254;11.454;2023-04-23T07:24:11;4.72;;;4.18;;
40955;SDS011;26687;48.254;11.454;2023-04-23T07:27:11;4.63;;;4.17;;
40955;SDS011;26687;48.254;11.454;2023-04-23T07:30:12;3.97;;;3.63;;
40955;SDS011;26687;48.254;11.454;2023-04-23T07:33:12;4.45;;;3.90;;
40955;SDS011;26687;48.254;11.454;2023-04-23T07:36:12;4.00;;;3.70;;
40955;SDS011;26687;48.254;11.454;2023-04-23T07:39:13;5.53;;;3.80;;
40955;SDS011;26687;48.254;11.454;2023-04-23T07:42:13;4.27;;;3.87;;
40955;SDS011;26687;48.254;11.454;2023-04-23T07:45:13;4.47;;;3.65;;
40955;SDS011;26687;48.254;11.454;2023-04-23T07:48:14;4.68;;;4.13;;
40955;SDS011;26687;48.254;11.454;2023-04-23T07:51:14;4.57;;;4.17;;
40955;SDS011;26687;48.254;11.454;2023-04-23T07:57:26;4.00;;;3.70;;
40955;SDS011;26687;48.254;11.454;2023-04-23T08:00:26;4.18;;;3.80;;
40955;SDS011;26687;48.254;11.454;2023-04-23T08:03:27;3.90;;;3.60;;
40955;SDS011;26687;48.254;11.454;2023-04-23T08:06:27;4.13;;;3.78;;
40955;SDS011;26687;48.254;11.454;2023-04-23T08:09:29;3.80;;;3.47;;
40955;SDS011;26687;48.254;11.454;2023-04-23T08:12:29;4.00;;;3.70;;
40955;SDS011;26687;48.254;11.454;2023-04-23T08:15:30;3.88;;;3.28;;
40955;SDS011;26687;48.254;11.454;2023-04-23T08:18:30;4.10;;;3.70;;
40955;SDS011;26687;48.254;11.454;2023-04-23T08:21:30;4.15;;;3.83;;
40955;SDS011;26687;48.254;11.454;2023-04-23T08:24:31;3.67;;;3.38;;
40955;SDS011;26687;48.254;11.454;2023-04-23T08:27:31;3.57;;;3.27;;
40955;SDS011;26687;48.254;11.454;2023-04-23T08:30:31;3.83;;;3.53;;
40955;SDS011;26687;48.254;11.454;2023-04-23T08:33:32;4.50;;;3.20;;
40955;SDS011;26687;48.254;11.454;2023-04-23T08:36:32;3.88;;;3.08;;
40955;SDS011;26687;48.254;11.454;2023-04-23T08:39:33;3.53;;;3.30;;
40955;SDS011;26687;48.254;11.454;2023-04-23T08:42:37;3.50;;;3.20;;
40955;SDS011;26687;48.254;11.454;2023-04-23T08:45:40;3.47;;;3.17;;
40955;SDS011;26687;48.254;11.454;2023-04-23T08:48:44;3.15;;;2.90;;
40955;SDS011;26687;48.254;11.454;2023-04-23T08:54:48;2.88;;;2.67;;
40955;SDS011;26687;48.254;11.454;2023-04-23T08:57:49;4.00;;;2.70;;
40955;SDS011;26687;48.254;11.454;2023-04-23T09:00:49;2.70;;;2.50;;
40955;SDS011;26687;48.254;11.454;2023-04-23T09:03:49;3.13;;;2.83;;
40955;SDS011;26687;48.254;11.454;2023-04-23T09:06:50;3.78;;;3.33;;
40955;SDS011;26687;48.254;11.454;2023-04-23T09:09:51;4.80;;;4.40;;
40955;SDS011;26687;48.254;11.454;2023-04-23T09:12:51;4.70;;;4.20;;
40955;SDS011;26687;48.254;11.454;2023-04-23T09:15:51;6.50;;;5.50;;
40955;SDS011;26687;48.254;11.454;2023-04-23T09:18:51;3.25;;;2.95;;
40955;SDS011;26687;48.254;11.454;2023-04-23T09:21:52;3.80;;;3.35;;
40955;SDS011;26687;48.254;11.454;2023-04-23T09:24:53;3.67;;;3.33;;
40955;SDS011;26687;48.254;11.454;2023-04-23T09:27:53;3.13;;;2.75;;
40955;SDS011;26687;48.254;11.454;2023-04-23T09:30:53;2.70;;;2.50;;
40955;SDS011;26687;48.254;11.454;2023-04-23T09:33:53;4.83;;;4.30;;
40955;SDS011;26687;48.254;11.454;2023-04-23T09:36:54;3.13;;;2.80;;
40955;SDS011;26687;48.254;11.454;2023-04-23T09:39:57;2.80;;;2.60;;
40955;SDS011;26687;48.254;11.454;2023-04-23T09:42:57;3.50;;;3.03;;
40955;SDS011;26687;48.254;11.454;2023-04-23T09:45:57;2.67;;;2.47;;
40955;SDS011;26687;48.254;11.454;2023-04-23T09:48:57;2.08;;;1.98;;
40955;SDS011;26687;48.254;11.454;2023-04-23T09:51:59;1.98;;;1.88;;
40955;SDS011;26687;48.254;11.454;2023-04-23T09:55:04;2.10;;;1.90;;
40955;SDS011;26687;48.254;11.454;2023-04-23T09:58:05;1.98;;;1.70;;
40955;SDS011;26687;48.254;11.454;2023-04-23T10:01:08;2.60;;;1.63;;
40955;SDS011;26687;48.254;11.454;2023-04-23T10:04:10;1.80;;;1.70;;
40955;SDS011;26687;48.254;11.454;2023-04-23T10:07:11;2.55;;;1.55;;
40955;SDS011;26687;48.254;11.454;2023-04-23T10:10:17;1.45;;;1.35;;
40955;SDS011;26687;48.254;11.454;2023-04-23T10:13:18;2.03;;;1.55;;
40955;SDS011;26687;48.254;11.454;2023-04-23T10:16:18;2.40;;;1.87;;
40955;SDS011;26687;48.254;11.454;2023-04-23T10:19:20;2.28;;;1.85;;
40955;SDS011;26687;48.254;11.454;2023-04-23T10:22:21;3.80;;;1.98;;
40955;SDS011;26687;48.254;11.454;2023-04-23T10:25:22;1.70;;;1.60;;
40955;SDS011;26687;48.254;11.454;2023-04-23T10:28:23;2.65;;;1.75;;
40955;SDS011;26687;48.254;11.454;2023-04-23T10:31:28;2.25;;;1.98;;
40955;SDS011;26687;48.254;11.454;2023-04-23T10:34:31;2.67;;;1.80;;
40955;SDS011;26687;48.254;11.454;2023-04-23T10:37:32;1.58;;;1.48;;
40955;SDS011;26687;48.254;11.454;2023-04-23T10:40:32;2.17;;;1.95;;
40955;SDS011;26687;48.254;11.454;2023-04-23T10:43:35;1.92;;;1.83;;
40955;SDS011;26687;48.254;11.454;2023-04-23T10:46:35;2.53;;;1.90;;
40955;SDS011;26687;48.254;11.454;2023-04-23T10:49:35;2.95;;;2.10;;
40955;SDS011;26687;48.254;11.454;2023-04-23T10:52:37;2.38;;;2.00;;
40955;SDS011;26687;48.254;11.454;2023-04-23T10:55:37;1.97;;;1.80;;
40955;SDS011;26687;48.254;11.454;2023-04-23T10:58:56;2.38;;;2.13;;
40955;SDS011;26687;48.254;11.454;2023-04-23T11:01:57;3.33;;;2.70;;
40955;SDS011;26687;48.254;11.454;2023-04-23T11:05:00;3.25;;;2.10;;
40955;SDS011;26687;48.254;11.454;2023-04-23T11:08:06;2.55;;;2.35;;
40955;SDS011;26687;48.254;11.454;2023-04-23T11:11:07;3.42;;;2.53;;
40955;SDS011;26687;48.254;11.454;2023-04-23T11:14:10;3.38;;;2.35;;
40955;SDS011;26687;48.254;11.454;2023-04-23T11:17:13;2.55;;;2.35;;
40955;SDS011;26687;48.254;11.454;2023-04-23T11:20:18;2.60;;;2.40;;
40955;SDS011;26687;48.254;11.454;2023-04-23T11:23:28;2.53;;;2.33;;
40955;SDS011;26687;48.254;11.454;2023-04-23T11:26:31;3.15;;;2.50;;
40955;SDS011;26687;48.254;11.454;2023-04-23T11:29:33;3.67;;;2.97;;
40955;SDS011;26687;48.254;11.454;2023-04-23T11:32:33;2.40;;;2.00;;
40955;SDS011;26687;48.254;11.454;2023-04-23T11:35:33;2.37;;;2.07;;
40955;SDS011;26687;48.254;11.454;2023-04-23T11:38:38;2.47;;;2.28;;
40955;SDS011;26687;48.254;11.454;2023-04-23T11:41:39;2.08;;;1.98;;
40955;SDS011;26687;48.254;11.454;2023-04-23T11:44:39;2.60;;;2.40;;
40955;SDS011;26687;48.254;11.454;2023-04-23T11:47:40;2.40;;;2.20;;
40955;SDS011;26687;48.254;11.454;2023-04-23T11:50:40;2.00;;;1.90;;
40955;SDS011;26687;48.254;11.454;2023-04-23T11:53:47;2.20;;;2.00;;
40955;SDS011;26687;48.254;11.454;2023-04-23T11:56:47;2.33;;;1.90;;
40955;SDS011;26687;48.254;11.454;2023-04-23T11:59:47;2.73;;;2.13;;
40955;SDS011;26687;48.254;11.454;2023-04-23T12:02:58;2.53;;;1.73;;
40955;SDS011;26687;48.254;11.454;2023-04-23T12:05:58;2.13;;;1.98;;
40955;SDS011;26687;48.254;11.454;2023-04-23T12:08:58;1.65;;;1.45;;
40955;SDS011;26687;48.254;11.454;2023-04-23T12:11:58;2.83;;;1.77;;
40955;SDS011;26687;48.254;11.454;2023-04-23T12:15:03;2.20;;;1.90;;
40955;SDS011;26687;48.254;11.454;2023-04-23T12:18:10;4.20;;;2.03;;
40955;SDS011;26687;48.254;11.454;2023-04-23T12:21:11;2.17;;;1.67;;
40955;SDS011;26687;48.254;11.454;2023-04-23T12:24:12;1.95;;;1.80;;
40955;SDS011;26687;48.254;11.454;2023-04-23T12:27:13;2.70;;;2.50;;
40955;SDS011;26687;48.254;11.454;2023-04-23T12:30:13;3.28;;;2.35;;
40955;SDS011;26687;48.254;11.454;2023-04-23T12:33:13;2.20;;;2.10;;
40955;SDS011;26687;48.254;11.454;2023-04-23T12:36:14;2.20;;;1.90;;
40955;SDS011;26687;48.254;11.454;2023-04-23T12:42:17;2.33;;;2.13;;
40955;SDS011;26687;48.254;11.454;2023-04-23T12:45:17;2.40;;;2.15;;
40955;SDS011;26687;48.254;11.454;2023-04-23T12:48:18;2.33;;;2.10;;
40955;SDS011;26687;48.254;11.454;2023-04-23T12:51:18;2.85;;;2.30;;
40955;SDS011;26687;48.254;11.454;2023-04-23T12:54:18;2.10;;;1.92;;
40955;SDS011;26687;48.254;11.454;2023-04-23T12:57:19;2.40;;;2.20;;
40955;SDS011;26687;48.254;11.454;2023-04-23T13:00:21;2.75;;;2.28;;
40955;SDS011;26687;48.254;11.454;2023-04-23T13:03:22;2.30;;;2.10;;
40955;SDS011;26687;48.254;11.454;2023-04-23T13:06:22;2.40;;;2.17;;
40955;SDS011;26687;48.254;11.454;2023-04-23T13:09:22;2.45;;;2.25;;
40955;SDS011;26687;48.254;11.454;2023-04-23T13:12:24;2.10;;;1.88;;
40955;SDS011;26687;48.254;11.454;2023-04-23T13:15:24;2.22;;;2.03;;
40955;SDS011;26687;48.254;11.454;2023-04-23T13:18:24;2.10;;;1.90;;
40955;SDS011;26687;48.254;11.454;2023-04-23T13:21:25;2.58;;;1.85;;
40955;SDS011;26687;48.254;11.454;2023-04-23T13:24:25;2.35;;;2.10;;
40955;SDS011;26687;48.254;11.454;2023-04-23T13:27:26;1.95;;;1.60;;
40955;SDS011;26687;48.254;11.454;2023-04-23T13:30:27;2.30;;;2.08;;
40955;SDS011;26687;48.254;11.454;2023-04-23T13:33:27;3.95;;;2.20;;
40955;SDS011;26687;48.254;11.454;2023-04-23T13:36:27;2.40;;;2.20;;
40955;SDS011;26687;48.254;11.454;2023-04-23T13:39:27;2.70;;;2.50;;
40955;SDS011;26687;48.254;11.454;2023-04-23T13:42:27;2.35;;;2.08;;
40955;SDS011;26687;48.254;11.454;2023-04-23T13:45:28;2.25;;;2.05;;
40955;SDS011;26687;48.254;11.454;2023-04-23T13:48:28;2.37;;;2.17;;
40955;SDS011;26687;48.254;11.454;2023-04-23T13:51:30;2.53;;;2.33;;
40955;SDS011;26687;48.254;11.454;2023-04-23T13:54:30;2.00;;;1.90;;
40955;SDS011;26687;48.254;11.454;2023-04-23T13:57:30;2.45;;;2.25;;
40955;SDS011;26687;48.254;11.454;2023-04-23T14:00:30;3.00;;;2.60;;
40955;SDS011;26687;48.254;11.454;2023-04-23T14:03:32;2.60;;;2.40;;
40955;SDS011;26687;48.254;11.454;2023-04-23T14:06:32;2.70;;;1.88;;
40955;SDS011;26687;48.254;11.454;2023-04-23T14:09:33;2.67;;;2.30;;
40955;SDS011;26687;48.254;11.454;2023-04-23T14:12:33;2.03;;;1.92;;
40955;SDS011;26687;48.254;11.454;2023-04-23T14:15:33;2.37;;;2.20;;
40955;SDS011;26687;48.254;11.454;2023-04-23T14:18:34;5.90;;;2.42;;
40955;SDS011;26687;48.254;11.454;2023-04-23T14:21:34;2.53;;;2.33;;
40955;SDS011;26687;48.254;11.454;2023-04-23T14:24:38;3.05;;;2.28;;
40955;SDS011;26687;48.254;11.454;2023-04-23T14:27:39;2.20;;;2.00;;
40955;SDS011;26687;48.254;11.454;2023-04-23T14:30:40;2.80;;;2.47;;
40955;SDS011;26687;48.254;11.454;2023-04-23T14:33:41;2.47;;;2.25;;
40955;SDS011;26687;48.254;11.454;2023-04-23T14:36:41;2.67;;;2.30;;
40955;SDS011;26687;48.254;11.454;2023-04-23T14:39:41;2.37;;;2.13;;
40955;SDS011;26687;48.254;11.454;2023-04-23T14:42:41;3.00;;;2.80;;
40955;SDS011;26687;48.254;11.454;2023-04-23T14:45:42;3.20;;;2.63;;
40955;SDS011;26687;48.254;11.454;2023-04-23T14:48:42;2.65;;;2.45;;
40955;SDS011;26687;48.254;11.454;2023-04-23T14:51:43;2.85;;;2.58;;
40955;SDS011;26687;48.254;11.454;2023-04-23T14:54:43;3.50;;;2.37;;
40955;SDS011;26687;48.254;11.454;2023-04-23T14:57:43;2.60;;;2.40;;
40955;SDS011;26687;48.254;11.454;2023-04-23T15:00:44;2.30;;;2.07;;
40955;SDS011;26687;48.254;11.454;2023-04-23T15:03:44;2.47;;;2.27;;
40955;SDS011;26687;48.254;11.454;2023-04-23T15:06:44;5.50;;;2.60;;
40955;SDS011;26687;48.254;11.454;2023-04-23T15:09:45;2.83;;;2.63;;
40955;SDS011;26687;48.254;11.454;2023-04-23T15:12:52;3.00;;;2.38;;
40955;SDS011;26687;48.254;11.454;2023-04-23T15:15:55;2.20;;;2.00;;
40955;SDS011;26687;48.254;11.454;2023-04-23T15:18:59;3.17;;;2.88;;
40955;SDS011;26687;48.254;11.454;2023-04-23T15:22:00;4.35;;;2.40;;
40955;SDS011;26687;48.254;11.454;2023-04-23T15:25:00;2.50;;;2.15;;
40955;SDS011;26687;48.254;11.454;2023-04-23T15:28:00;3.40;;;2.40;;
40955;SDS011;26687;48.254;11.454;2023-04-23T15:31:00;2.20;;;2.00;;
40955;SDS011;26687;48.254;11.454;2023-04-23T15:34:00;3.60;;;2.05;;
40955;SDS011;26687;48.254;11.454;2023-04-23T15:37:01;2.38;;;2.10;;
40955;SDS011;26687;48.254;11.454;2023-04-23T15:40:01;3.07;;;2.40;;
40955;SDS011;26687;48.254;11.454;2023-04-23T15:43:01;2.22;;;2.03;;
40955;SDS011;26687;48.254;11.454;2023-04-23T15:46:02;3.08;;;2.20;;
40955;SDS011;26687;48.254;11.454;2023-04-23T15:49:02;2.30;;;2.10;;
40955;SDS011;26687;48.254;11.454;2023-04-23T15:52:04;2.63;;;2.42;;
40955;SDS011;26687;48.254;11.454;2023-04-23T15:55:04;3.08;;;2.20;;
40955;SDS011;26687;48.254;11.454;2023-04-23T15:58:05;2.83;;;2.50;;
40955;SDS011;26687;48.254;11.454;2023-04-23T16:01:05;2.97;;;2.45;;
40955;SDS011;26687;48.254;11.454;2023-04-23T16:04:06;2.40;;;2.20;;
40955;SDS011;26687;48.254;11.454;2023-04-23T16:07:06;2.60;;;2.28;;
40955;SDS011;26687;48.254;11.454;2023-04-23T16:10:07;3.57;;;2.10;;
40955;SDS011;26687;48.254;11.454;2023-04-23T16:13:07;2.30;;;2.10;;
40955;SDS011;26687;48.254;11.454;2023-04-23T16:16:08;2.60;;;2.00;;
40955;SDS011;26687;48.254;11.454;2023-04-23T16:19:08;4.47;;;2.35;;
40955;SDS011;26687;48.254;11.454;2023-04-23T16:22:08;2.53;;;2.00;;
40955;SDS011;26687;48.254;11.454;2023-04-23T16:25:08;4.10;;;2.30;;
40955;SDS011;26687;48.254;11.454;2023-04-23T16:28:09;2.00;;;1.80;;
40955;SDS011;26687;48.254;11.454;2023-04-23T16:31:09;1.70;;;1.60;;
40955;SDS011;26687;48.254;11.454;2023-04-23T16:34:09;2.60;;;2.30;;
40955;SDS011;26687;48.254;11.454;2023-04-23T16:37:09;1.90;;;1.80;;
40955;SDS011;26687;48.254;11.454;2023-04-23T16:40:12;3.93;;;2.23;;
40955;SDS011;26687;48.254;11.454;2023-04-23T16:43:14;2.85;;;2.03;;
40955;SDS011;26687;48.254;11.454;2023-04-23T16:46:14;2.00;;;1.73;;
40955;SDS011;26687;48.254;11.454;2023-04-23T16:49:14;2.40;;;2.20;;
40955;SDS011;26687;48.254;11.454;2023-04-23T16:52:14;1.90;;;1.80;;
40955;SDS011;26687;48.254;11.454;2023-04-23T16:55:15;2.55;;;2.00;;
40955;SDS011;26687;48.254;11.454;2023-04-23T16:58:15;2.60;;;2.25;;
40955;SDS011;26687;48.254;11.454;2023-04-23T17:01:16;3.25;;;2.55;;
40955;SDS011;26687;48.254;11.454;2023-04-23T17:04:16;3.57;;;2.20;;
40955;SDS011;26687;48.254;11.454;2023-04-23T17:07:17;2.50;;;2.22;;
40955;SDS011;26687;48.254;11.454;2023-04-23T17:10:18;2.33;;;2.13;;
40955;SDS011;26687;48.254;11.454;2023-04-23T17:13:18;2.40;;;2.20;;
40955;SDS011;26687;48.254;11.454;2023-04-23T17:16:19;2.53;;;2.33;;
40955;SDS011;26687;48.254;11.454;2023-04-23T17:19:19;3.10;;;2.70;;
40955;SDS011;26687;48.254;11.454;2023-04-23T17:22:19;2.90;;;2.70;;
40955;SDS011;26687;48.254;11.454;2023-04-23T17:25:19;2.73;;;2.53;;
40955;SDS011;26687;48.254;11.454;2023-04-23T17:28:19;3.15;;;2.70;;
40955;SDS011;26687;48.254;11.454;2023-04-23T17:31:20;2.80;;;2.47;;
40955;SDS011;26687;48.254;11.454;2023-04-23T17:34:20;3.92;;;2.67;;
40955;SDS011;26687;48.254;11.454;2023-04-23T17:37:20;2.70;;;2.50;;
40955;SDS011;26687;48.254;11.454;2023-04-23T17:40:21;3.20;;;2.90;;
40955;SDS011;26687;48.254;11.454;2023-04-23T17:43:21;6.00;;;5.43;;
40955;SDS011;26687;48.254;11.454;2023-04-23T17:46:21;3.70;;;3.40;;
40955;SDS011;26687;48.254;11.454;2023-04-23T17:49:21;4.30;;;3.90;;
40955;SDS011;26687;48.254;11.454;2023-04-23T17:52:22;4.63;;;4.32;;
40955;SDS011;26687;48.254;11.454;2023-04-23T17:55:22;5.30;;;4.80;;
40955;SDS011;26687;48.254;11.454;2023-04-23T17:58:23;5.38;;;3.97;;
40955;SDS011;26687;48.254;11.454;2023-04-23T18:01:23;3.53;;;3.22;;
40955;SDS011;26687;48.254;11.454;2023-04-23T18:04:23;3.60;;;3.20;;